Terminal Aerodrome Forecast
Issued by NWS Knoxville/Tri Cities, TN

Home | Current Version | Previous Version | Text Only | Print | Product List | Glossary On
Versions: 1 2 3 4 5 6 7 8 9 10 11 12 13 14 15 16 17 18 19 20 21 22
000
FTUS44 KMRX 011248 AAA
TAFTRI
TAF AMD
KTRI 011248Z 0113/0212 VRB04KT 6SM BR VCTS FEW003 SCT040CB BKN060
      TEMPO 0113/0114 VRB02KT 4SM -SHRA BR BKN035
     FM011500 22009KT P6SM BKN040 BKN250
     FM012100 23012KT P6SM VCTS SCT050CB BKN250
     FM020300 VRB03KT P6SM VCTS SCT050CB BKN250
     FM020900 VRB03KT 5SM BR BKN040 BKN200=

USA.gov is the U.S. government's official web portal to all federal, state and local government web resources and services.